createdAt,value
2018-09-02T00:00:01.695Z,3.67
2018-09-02T00:02:30.111Z,4.27
2018-09-02T00:04:58.948Z,4.37
2018-09-02T00:07:27.358Z,4.57
2018-09-02T00:09:55.798Z,4.60
2018-09-02T00:12:24.232Z,4.53
2018-09-02T00:14:52.993Z,4.30
2018-09-02T00:17:21.418Z,5.20
2018-09-02T00:19:49.863Z,5.17
2018-09-02T00:22:18.305Z,5.30
2018-09-02T00:24:46.747Z,4.93
2018-09-02T00:27:15.267Z,5.60
2018-09-02T00:29:43.672Z,5.20
2018-09-02T00:32:12.122Z,4.57
2018-09-02T00:34:40.581Z,5.27
2018-09-02T00:37:08.979Z,5.30
2018-09-02T00:39:37.398Z,5.07
2018-09-02T00:42:06.158Z,5.23
2018-09-02T00:44:34.584Z,5.40
2018-09-02T00:47:03.686Z,4.87
2018-09-02T00:49:32.099Z,6.03
2018-09-02T00:52:00.548Z,5.90
2018-09-02T00:54:29.000Z,5.47
2018-09-02T00:56:57.453Z,5.57
2018-09-02T00:59:25.894Z,6.20
2018-09-02T01:01:54.370Z,5.67
2018-09-02T01:04:23.163Z,5.97
2018-09-02T01:06:51.595Z,5.90
2018-09-02T01:09:19.998Z,6.00
2018-09-02T01:11:48.466Z,5.83
2018-09-02T01:14:16.923Z,6.30
2018-09-02T01:16:45.335Z,6.03
2018-09-02T01:19:13.765Z,6.93
2018-09-02T01:21:42.225Z,7.80
2018-09-02T01:24:10.666Z,7.10
2018-09-02T01:26:39.051Z,8.13
2018-09-02T01:29:07.467Z,8.07
2018-09-02T01:31:35.912Z,8.97
2018-09-02T01:34:04.407Z,8.97
2018-09-02T01:36:32.814Z,8.00
2018-09-02T01:39:01.234Z,8.03
2018-09-02T01:41:29.654Z,7.70
2018-09-02T01:43:58.087Z,7.73
2018-09-02T01:46:26.554Z,8.10
2018-09-02T01:48:55.025Z,7.60
2018-09-02T01:51:23.427Z,8.27
2018-09-02T01:53:51.859Z,8.53
2018-09-02T01:56:20.278Z,8.50
2018-09-02T01:58:48.732Z,9.40
2018-09-02T02:01:17.147Z,8.47
2018-09-02T02:03:45.587Z,9.33
2018-09-02T02:06:14.005Z,8.23
2018-09-02T02:08:42.445Z,9.00
2018-09-02T02:11:10.849Z,8.17
2018-09-02T02:13:39.268Z,9.37
2018-09-02T02:16:07.751Z,10.17
2018-09-02T02:18:36.181Z,10.27
2018-09-02T02:21:04.635Z,10.67
2018-09-02T02:23:33.738Z,9.80
2018-09-02T02:26:02.151Z,10.10
2018-09-02T02:31:05.251Z,10.30
2018-09-02T02:33:33.814Z,11.03
2018-09-02T02:36:02.219Z,9.93
2018-09-02T02:38:30.652Z,10.77
2018-09-02T02:40:59.323Z,10.33
2018-09-02T02:43:27.726Z,11.00
2018-09-02T02:45:56.177Z,9.93
2018-09-02T02:48:24.598Z,9.87
2018-09-02T02:50:53.026Z,9.63
2018-09-02T02:53:21.447Z,10.60
2018-09-02T02:55:50.215Z,10.20
2018-09-02T02:58:18.657Z,10.27
2018-09-02T03:00:47.088Z,10.07
2018-09-02T03:03:15.634Z,10.37
2018-09-02T03:05:44.074Z,10.37
2018-09-02T03:08:12.510Z,10.00
2018-09-02T03:10:41.002Z,11.30
2018-09-02T03:13:09.970Z,9.90
2018-09-02T03:15:38.432Z,9.83
2018-09-02T03:18:06.885Z,9.70
2018-09-02T03:20:35.296Z,10.07
2018-09-02T03:23:03.823Z,10.37
2018-09-02T03:25:32.297Z,10.43
2018-09-02T03:28:01.118Z,10.00
2018-09-02T03:30:29.619Z,10.53
2018-09-02T03:32:58.042Z,10.20
2018-09-02T03:35:27.140Z,11.87
2018-09-02T03:37:55.559Z,12.07
2018-09-02T03:40:24.071Z,12.37
2018-09-02T03:42:52.605Z,11.17
2018-09-02T03:45:21.198Z,11.77
2018-09-02T03:47:49.621Z,12.70
2018-09-02T03:50:18.030Z,13.10
2018-09-02T03:52:46.470Z,13.87
2018-09-02T03:55:14.953Z,14.03
2018-09-02T03:57:43.349Z,14.03
2018-09-02T04:00:12.135Z,13.63
2018-09-02T04:02:40.571Z,13.73
2018-09-02T04:05:09.359Z,13.40
2018-09-02T04:07:37.768Z,14.63
2018-09-02T04:10:06.667Z,15.10
2018-09-02T04:12:35.056Z,13.97
2018-09-02T04:15:03.523Z,14.33
2018-09-02T04:17:31.919Z,14.60
2018-09-02T04:20:00.359Z,14.77
2018-09-02T04:22:28.750Z,14.87
2018-09-02T04:24:57.171Z,15.30
2018-09-02T04:27:25.569Z,14.43
2018-09-02T04:29:53.988Z,15.60
2018-09-02T04:32:22.390Z,15.40
2018-09-02T04:34:50.830Z,15.73
2018-09-02T04:37:19.240Z,15.03
2018-09-02T04:39:47.639Z,16.10
2018-09-02T04:42:16.713Z,16.03
2018-09-02T04:44:45.641Z,15.20
2018-09-02T04:47:14.059Z,16.07
2018-09-02T04:49:42.511Z,15.27
2018-09-02T04:52:10.918Z,16.10
2018-09-02T04:54:39.496Z,16.67
2018-09-02T04:57:07.920Z,18.60
2018-09-02T04:59:36.336Z,15.97
2018-09-02T05:02:04.753Z,16.27
2018-09-02T05:04:33.206Z,15.70
2018-09-02T05:07:01.672Z,16.20
2018-09-02T05:09:30.072Z,15.73
2018-09-02T05:11:58.502Z,15.83
2018-09-02T05:14:26.906Z,16.77
2018-09-02T05:16:55.372Z,16.43
2018-09-02T05:19:23.782Z,16.60
2018-09-02T05:21:52.288Z,16.50
2018-09-02T05:24:20.695Z,17.23
2018-09-02T05:26:49.154Z,15.90
2018-09-02T05:29:17.553Z,15.60
2018-09-02T05:31:46.035Z,15.30
2018-09-02T05:34:14.468Z,15.83
2018-09-02T05:36:42.900Z,15.63
2018-09-02T05:39:11.753Z,16.33
2018-09-02T05:41:40.276Z,16.43
2018-09-02T05:44:08.768Z,16.27
2018-09-02T05:46:37.295Z,15.73
2018-09-02T05:49:06.212Z,15.13
2018-09-02T05:51:35.065Z,15.87
2018-09-02T05:54:03.502Z,14.47
2018-09-02T05:56:31.915Z,15.33
2018-09-02T05:59:00.338Z,13.63
2018-09-02T06:01:28.761Z,14.30
2018-09-02T06:03:57.179Z,13.37
2018-09-02T06:06:25.638Z,12.83
2018-09-02T06:08:54.042Z,12.63
2018-09-02T06:11:22.462Z,12.13
2018-09-02T06:13:50.951Z,12.17
2018-09-02T06:16:20.303Z,11.90
2018-09-02T06:18:48.718Z,11.10
2018-09-02T06:21:17.370Z,10.63
2018-09-02T06:23:45.779Z,10.70
2018-09-02T06:26:14.489Z,12.03
2018-09-02T06:28:42.918Z,11.17
2018-09-02T06:31:11.343Z,10.37
2018-09-02T06:33:39.811Z,9.90
2018-09-02T06:36:08.213Z,9.90
2018-09-02T06:38:36.639Z,10.30
2018-09-02T06:41:05.788Z,9.93
2018-09-02T06:43:34.210Z,9.10
2018-09-02T06:46:03.375Z,8.17
2018-09-02T06:48:31.847Z,8.77
2018-09-02T06:51:00.579Z,8.70
2018-09-02T06:53:28.980Z,8.43
2018-09-02T06:55:57.391Z,7.63
2018-09-02T06:58:25.920Z,7.90
2018-09-02T07:00:54.530Z,7.63
2018-09-02T07:03:23.058Z,7.47
2018-09-02T07:05:51.491Z,7.17
2018-09-02T07:08:19.910Z,7.23
2018-09-02T07:10:48.315Z,7.73
2018-09-02T07:13:16.728Z,7.27
2018-09-02T07:15:45.153Z,6.43
2018-09-02T07:18:13.602Z,7.13
2018-09-02T07:20:42.041Z,6.43
2018-09-02T07:23:10.833Z,6.93
2018-09-02T07:25:39.252Z,6.67
2018-09-02T07:28:07.679Z,6.10
2018-09-02T07:30:36.106Z,6.17
2018-09-02T07:33:04.545Z,6.60
2018-09-02T07:35:33.602Z,6.07
2018-09-02T07:38:02.063Z,5.87
2018-09-02T07:40:30.523Z,6.17
2018-09-02T07:42:58.947Z,5.63
2018-09-02T07:45:27.395Z,5.37
2018-09-02T07:47:55.871Z,4.83
2018-09-02T07:50:24.862Z,5.50
2018-09-02T07:52:53.263Z,4.63
2018-09-02T07:55:27.904Z,4.93
2018-09-02T07:58:00.659Z,4.63
2018-09-02T08:00:33.788Z,4.50
2018-09-02T08:03:04.159Z,4.40
2018-09-02T08:05:34.592Z,4.33
2018-09-02T08:08:03.330Z,3.70
2018-09-02T08:10:31.816Z,4.10
2018-09-02T08:13:00.341Z,4.87
2018-09-02T08:15:29.048Z,4.43
2018-09-02T08:18:00.655Z,4.47
2018-09-02T08:20:35.779Z,3.90
2018-09-02T08:23:08.470Z,4.07
2018-09-02T08:25:41.762Z,3.67
2018-09-02T08:28:17.713Z,3.60
2018-09-02T08:30:53.610Z,3.53
2018-09-02T08:33:25.327Z,3.10
2018-09-02T08:35:55.699Z,2.73
2018-09-02T08:38:24.186Z,2.40
2018-09-02T08:40:52.738Z,2.67
2018-09-02T08:43:21.137Z,2.80
2018-09-02T08:45:49.531Z,2.40
2018-09-02T08:48:17.987Z,2.93
2018-09-02T08:50:46.379Z,2.57
2018-09-02T08:53:16.848Z,2.70
2018-09-02T08:55:46.716Z,2.97
2018-09-02T08:58:15.410Z,2.63
2018-09-02T09:00:44.210Z,3.30
2018-09-02T09:03:12.707Z,3.17
2018-09-02T09:05:42.081Z,2.47
2018-09-02T09:08:11.406Z,2.80
2018-09-02T09:10:40.019Z,3.17
2018-09-02T09:13:08.478Z,2.47
2018-09-02T09:15:36.904Z,2.97
2018-09-02T09:18:05.707Z,2.93
2018-09-02T09:20:34.143Z,3.10
2018-09-02T09:23:05.388Z,3.13
2018-09-02T09:25:33.803Z,3.20
2018-09-02T09:28:03.195Z,2.70
2018-09-02T09:30:31.622Z,2.87
2018-09-02T09:33:00.215Z,2.80
2018-09-02T09:35:28.650Z,3.10
2018-09-02T09:37:57.062Z,2.63
2018-09-02T09:40:25.473Z,2.50
2018-09-02T09:42:53.879Z,3.10
2018-09-02T09:45:22.347Z,3.10
2018-09-02T09:47:50.951Z,2.70
2018-09-02T09:50:19.380Z,4.00
2018-09-02T09:52:50.473Z,3.17
2018-09-02T09:55:21.774Z,4.20
2018-09-02T09:57:51.119Z,3.03
2018-09-02T10:00:25.054Z,2.80
2018-09-02T10:02:53.978Z,2.80
2018-09-02T10:05:22.479Z,3.13
2018-09-02T10:07:50.930Z,2.70
2018-09-02T10:10:19.490Z,2.80
2018-09-02T10:12:48.076Z,3.20
2018-09-02T10:15:16.648Z,3.00
2018-09-02T10:17:45.445Z,3.40
2018-09-02T10:20:13.930Z,2.90
2018-09-02T10:22:42.429Z,2.40
2018-09-02T10:25:10.931Z,3.10
2018-09-02T10:27:39.399Z,3.13
2018-09-02T10:30:08.143Z,2.47
2018-09-02T10:32:36.656Z,2.70
2018-09-02T10:35:05.548Z,2.57
2018-09-02T10:37:34.060Z,2.83
2018-09-02T10:40:02.550Z,2.77
2018-09-02T10:42:31.074Z,3.00
2018-09-02T10:44:59.589Z,2.90
2018-09-02T10:47:28.056Z,2.73
2018-09-02T10:49:56.562Z,2.90
2018-09-02T10:52:25.447Z,3.17
2018-09-02T10:54:54.089Z,2.60
2018-09-02T10:57:22.582Z,3.00
2018-09-02T10:59:51.055Z,2.80
2018-09-02T11:02:19.570Z,2.60
2018-09-02T11:04:48.035Z,2.60
2018-09-02T11:07:16.523Z,2.83
2018-09-02T11:09:45.027Z,2.67
2018-09-02T11:12:13.503Z,2.77
2018-09-02T11:14:42.023Z,3.17
2018-09-02T11:17:10.502Z,2.53
2018-09-02T11:19:38.965Z,2.90
2018-09-02T11:22:07.479Z,2.70
2018-09-02T11:24:35.958Z,2.80
2018-09-02T11:27:04.829Z,2.70
2018-09-02T11:29:33.314Z,3.00
2018-09-02T11:32:01.797Z,2.90
2018-09-02T11:34:30.682Z,2.73
2018-09-02T11:36:59.246Z,2.80
2018-09-02T11:39:27.728Z,2.70
2018-09-02T11:41:56.198Z,2.57
2018-09-02T11:44:24.731Z,2.70
2018-09-02T11:46:53.302Z,2.60
2018-09-02T11:49:21.974Z,3.10
2018-09-02T11:51:50.524Z,2.80
2018-09-02T11:54:19.018Z,3.00
2018-09-02T11:56:47.497Z,2.90
2018-09-02T11:59:15.996Z,3.20
2018-09-02T12:01:44.486Z,2.80
2018-09-02T12:04:12.984Z,2.80
2018-09-02T12:06:41.556Z,2.87
2018-09-02T12:09:10.074Z,2.53
2018-09-02T12:11:39.282Z,2.90
2018-09-02T12:14:08.752Z,3.10
2018-09-02T12:16:37.263Z,3.00
2018-09-02T12:19:06.155Z,2.90
2018-09-02T12:21:34.629Z,2.43
2018-09-02T12:24:03.115Z,3.10
2018-09-02T12:26:31.646Z,2.90
2018-09-02T12:29:00.138Z,2.90
2018-09-02T12:31:28.679Z,3.47
2018-09-02T12:33:57.330Z,3.20
2018-09-02T12:36:25.810Z,3.23
2018-09-02T12:38:54.297Z,2.77
2018-09-02T12:41:22.784Z,3.10
2018-09-02T12:43:51.248Z,3.10
2018-09-02T12:46:19.749Z,2.87
2018-09-02T12:48:48.227Z,2.80
2018-09-02T12:51:17.184Z,2.90
2018-09-02T12:53:45.688Z,2.80
2018-09-02T12:56:14.214Z,2.67
2018-09-02T12:58:42.676Z,2.80
2018-09-02T13:01:11.196Z,2.60
2018-09-02T13:03:39.927Z,3.10
2018-09-02T13:06:08.439Z,3.10
2018-09-02T13:08:36.926Z,2.63
2018-09-02T13:11:05.684Z,3.03
2018-09-02T13:13:34.219Z,2.67
2018-09-02T13:16:02.730Z,3.00
2018-09-02T13:18:31.295Z,3.03
2018-09-02T13:20:59.860Z,3.00
2018-09-02T13:23:29.314Z,3.33
2018-09-02T13:25:58.228Z,2.80
2018-09-02T13:28:26.690Z,2.80
2018-09-02T13:30:55.572Z,2.93
2018-09-02T13:33:24.054Z,2.50
2018-09-02T13:35:52.544Z,2.80
2018-09-02T13:38:21.009Z,2.60
2018-09-02T13:40:49.491Z,2.80
2018-09-02T13:43:18.112Z,2.53
2018-09-02T13:45:46.934Z,2.67
2018-09-02T13:48:15.417Z,2.80
2018-09-02T13:50:43.911Z,2.80
2018-09-02T13:53:12.442Z,2.80
2018-09-02T13:55:40.972Z,3.10
2018-09-02T13:58:09.470Z,2.90
2018-09-02T14:00:37.927Z,2.83
2018-09-02T14:03:06.819Z,2.80
2018-09-02T14:05:35.291Z,2.80
2018-09-02T14:08:03.861Z,2.77
2018-09-02T14:10:32.458Z,2.90
2018-09-02T14:13:01.011Z,2.87
2018-09-02T14:15:29.819Z,2.90
2018-09-02T14:17:58.349Z,2.80
2018-09-02T14:20:27.196Z,2.70
2018-09-02T14:22:55.807Z,3.03
2018-09-02T14:25:24.295Z,2.57
2018-09-02T14:27:52.787Z,2.70
2018-09-02T14:30:21.310Z,3.10
2018-09-02T14:32:49.834Z,2.77
2018-09-02T14:35:18.365Z,2.63
2018-09-02T14:37:46.918Z,2.63
2018-09-02T14:40:15.858Z,2.80
2018-09-02T14:42:45.094Z,2.63
2018-09-02T14:45:13.602Z,2.70
2018-09-02T14:47:42.095Z,2.40
2018-09-02T14:50:10.615Z,2.60
2018-09-02T14:52:39.126Z,2.67
2018-09-02T14:55:07.678Z,2.40
2018-09-02T14:57:36.196Z,3.10
2018-09-02T15:00:05.163Z,2.50
2018-09-02T15:02:33.639Z,2.70
2018-09-02T15:05:02.367Z,2.70
2018-09-02T15:07:30.858Z,2.70
2018-09-02T15:09:59.461Z,2.50
2018-09-02T15:12:27.948Z,2.40
2018-09-02T15:14:56.454Z,2.50
2018-09-02T15:17:24.926Z,2.77
2018-09-02T15:19:53.470Z,2.80
2018-09-02T15:22:21.991Z,2.70
2018-09-02T15:24:50.486Z,2.67
2018-09-02T15:27:19.001Z,2.30
2018-09-02T15:29:47.651Z,2.50
2018-09-02T15:32:16.139Z,2.57
2018-09-02T15:34:44.678Z,3.03
2018-09-02T15:37:13.183Z,2.47
2018-09-02T15:39:43.383Z,2.80
2018-09-02T15:42:11.855Z,2.70
2018-09-02T15:44:40.386Z,2.93
2018-09-02T15:47:10.566Z,2.63
2018-09-02T15:49:39.111Z,2.63
2018-09-02T15:52:07.638Z,3.30
2018-09-02T15:54:36.119Z,2.97
2018-09-02T15:57:04.738Z,2.80
2018-09-02T15:59:33.252Z,2.40
2018-09-02T16:02:02.052Z,2.53
2018-09-02T16:04:30.517Z,2.67
2018-09-02T16:06:59.006Z,2.83
2018-09-02T16:09:27.495Z,2.57
2018-09-02T16:11:56.026Z,3.27
2018-09-02T16:14:24.515Z,3.10
2018-09-02T16:16:53.035Z,2.47
2018-09-02T16:19:21.502Z,2.53
2018-09-02T16:21:49.999Z,2.90
2018-09-02T16:24:18.495Z,2.77
2018-09-02T16:26:47.038Z,2.63
2018-09-02T16:29:15.533Z,2.93
2018-09-02T16:31:44.071Z,2.77
2018-09-02T16:34:12.562Z,2.80
2018-09-02T16:36:41.088Z,2.70
2018-09-02T16:39:10.237Z,2.57
2018-09-02T16:41:38.759Z,2.80
2018-09-02T16:44:07.250Z,3.00
2018-09-02T16:46:35.744Z,2.50
2018-09-02T16:49:04.595Z,2.50
2018-09-02T16:51:33.098Z,2.97
2018-09-02T16:54:01.606Z,3.40
2018-09-02T16:56:30.091Z,3.30
2018-09-02T16:58:58.626Z,3.00
2018-09-02T17:01:27.166Z,2.87
2018-09-02T17:03:58.503Z,2.90
2018-09-02T17:06:26.992Z,2.80
2018-09-02T17:08:55.863Z,3.00
2018-09-02T17:11:28.693Z,2.80
2018-09-02T17:13:57.259Z,2.90
2018-09-02T17:16:26.468Z,2.80
2018-09-02T17:18:58.521Z,3.33
2018-09-02T17:21:27.910Z,2.60
2018-09-02T17:23:56.382Z,3.10
2018-09-02T17:26:24.859Z,3.27
2018-09-02T17:28:53.433Z,2.80
2018-09-02T17:31:21.939Z,2.80
2018-09-02T17:33:50.535Z,2.87
2018-09-02T17:36:19.066Z,2.90
2018-09-02T17:38:47.568Z,3.17
2018-09-02T17:41:16.363Z,3.00
2018-09-02T17:43:44.904Z,2.60
2018-09-02T17:46:13.407Z,2.77
2018-09-02T17:48:41.911Z,2.77
2018-09-02T17:51:10.456Z,3.07
2018-09-02T17:53:38.968Z,2.30
2018-09-02T17:56:07.815Z,2.77
2018-09-02T17:58:36.340Z,2.60
2018-09-02T18:01:05.761Z,2.70
2018-09-02T18:03:34.247Z,2.97
2018-09-02T18:06:02.946Z,2.47
2018-09-02T18:08:31.446Z,3.10
2018-09-02T18:11:00.020Z,2.90
2018-09-02T18:13:28.514Z,3.00
2018-09-02T18:15:57.120Z,2.73
2018-09-02T18:18:26.038Z,2.63
2018-09-02T18:20:54.582Z,3.13
2018-09-02T18:23:23.115Z,2.60
2018-09-02T18:25:51.635Z,3.17
2018-09-02T18:28:22.946Z,3.47
2018-09-02T18:30:51.475Z,2.60
2018-09-02T18:33:19.983Z,2.50
2018-09-02T18:35:48.455Z,2.47
2018-09-02T18:38:16.991Z,2.90
2018-09-02T18:40:45.556Z,2.50
2018-09-02T18:43:14.036Z,2.97
2018-09-02T18:45:42.536Z,2.67
2018-09-02T18:48:11.071Z,3.10
2018-09-02T18:50:39.931Z,2.67
2018-09-02T18:53:08.404Z,2.87
2018-09-02T18:55:36.924Z,2.63
2018-09-02T18:58:05.446Z,2.50
2018-09-02T19:00:33.956Z,2.63
2018-09-02T19:03:02.496Z,2.80
2018-09-02T19:05:31.230Z,2.93
2018-09-02T19:07:59.719Z,2.70
2018-09-02T19:10:28.280Z,3.00
2018-09-02T19:12:56.738Z,2.43
2018-09-02T19:15:25.283Z,2.80
2018-09-02T19:17:53.766Z,2.40
2018-09-02T19:20:22.259Z,2.90
2018-09-02T19:23:21.525Z,2.50
2018-09-02T19:25:50.139Z,2.73
2018-09-02T19:28:18.654Z,3.07
2018-09-02T19:30:48.562Z,3.00
2018-09-02T19:33:17.040Z,3.20
2018-09-02T19:35:45.527Z,2.73
2018-09-02T19:38:14.282Z,2.83
2018-09-02T19:40:42.776Z,2.50
2018-09-02T19:43:11.260Z,3.17
2018-09-02T19:45:39.858Z,2.93
2018-09-02T19:48:08.346Z,2.70
2018-09-02T19:50:36.831Z,2.90
2018-09-02T19:53:05.444Z,3.23
2018-09-02T19:55:33.915Z,2.83
2018-09-02T19:58:02.440Z,2.90
2018-09-02T20:00:31.159Z,2.90
2018-09-02T20:02:59.671Z,2.73
2018-09-02T20:05:28.158Z,3.40
2018-09-02T20:07:58.482Z,3.30
2018-09-02T20:10:27.115Z,3.97
2018-09-02T20:12:55.620Z,3.17
2018-09-02T20:15:24.176Z,3.50
2018-09-02T20:17:52.874Z,3.07
2018-09-02T20:20:22.488Z,3.40
2018-09-02T20:22:51.125Z,3.30
2018-09-02T20:25:19.652Z,3.23
2018-09-02T20:27:48.167Z,3.47
2018-09-02T20:30:16.684Z,2.90
2018-09-02T20:32:45.279Z,3.30
2018-09-02T20:35:13.827Z,3.00
2018-09-02T20:37:42.327Z,3.17
2018-09-02T20:40:10.807Z,3.40
2018-09-02T20:42:39.271Z,2.97
2018-09-02T20:45:07.808Z,3.30
2018-09-02T20:47:36.271Z,3.33
2018-09-02T20:50:05.484Z,3.10
2018-09-02T20:52:33.967Z,3.10
2018-09-02T20:55:02.763Z,3.70
2018-09-02T20:57:31.238Z,3.50
2018-09-02T20:59:59.742Z,3.33
2018-09-02T21:02:28.309Z,3.27
2018-09-02T21:04:57.000Z,3.97
2018-09-02T21:07:25.519Z,4.20
2018-09-02T21:09:54.613Z,4.00
2018-09-02T21:12:23.094Z,3.90
2018-09-02T21:14:51.948Z,4.60
2018-09-02T21:17:20.458Z,4.20
2018-09-02T21:19:48.944Z,4.07
2018-09-02T21:22:17.431Z,4.53
2018-09-02T21:24:45.935Z,4.80
2018-09-02T21:27:14.406Z,4.17
2018-09-02T21:29:42.910Z,4.50
2018-09-02T21:32:11.408Z,4.43
2018-09-02T21:34:41.325Z,4.23
2018-09-02T21:37:10.684Z,4.30
2018-09-02T21:39:39.338Z,3.63
2018-09-02T21:42:07.883Z,4.13
2018-09-02T21:44:36.342Z,3.73
2018-09-02T21:47:05.199Z,4.07
2018-09-02T21:49:33.680Z,4.20
2018-09-02T21:52:02.186Z,4.30
2018-09-02T21:54:30.814Z,3.67
2018-09-02T21:56:59.907Z,3.77
2018-09-02T21:59:28.394Z,3.70
2018-09-02T22:01:57.106Z,4.13
2018-09-02T22:04:25.587Z,3.83
2018-09-02T22:06:54.062Z,3.97
2018-09-02T22:09:22.541Z,4.23
2018-09-02T22:11:51.070Z,3.73
2018-09-02T22:14:19.522Z,4.00
2018-09-02T22:16:48.029Z,4.17
2018-09-02T22:22:15.350Z,4.03
2018-09-02T22:24:43.879Z,3.33
2018-09-02T22:27:12.363Z,4.13
2018-09-02T22:29:41.455Z,3.80
2018-09-02T22:32:09.994Z,4.10
2018-09-02T22:34:38.478Z,4.37
2018-09-02T22:37:07.019Z,3.97
2018-09-02T22:39:35.868Z,3.97
2018-09-02T22:42:04.368Z,3.87
2018-09-02T22:44:32.830Z,3.80
2018-09-02T22:47:01.336Z,3.80
2018-09-02T22:49:29.794Z,3.73
2018-09-02T22:51:58.462Z,4.13
2018-09-02T22:54:27.128Z,3.60
2018-09-02T22:56:55.622Z,3.73
2018-09-02T22:59:24.063Z,4.17
2018-09-02T23:01:52.538Z,3.97
2018-09-02T23:04:21.051Z,4.07
2018-09-02T23:06:49.831Z,3.60
2018-09-02T23:09:18.312Z,4.37
2018-09-02T23:11:46.755Z,3.80
2018-09-02T23:14:15.591Z,3.80
2018-09-02T23:16:44.178Z,4.00
2018-09-02T23:19:12.759Z,3.40
2018-09-02T23:21:41.518Z,3.90
2018-09-02T23:24:10.096Z,4.10
2018-09-02T23:26:38.657Z,4.07
2018-09-02T23:29:07.521Z,3.40
2018-09-02T23:31:35.994Z,3.97
2018-09-02T23:34:04.722Z,4.20
2018-09-02T23:36:33.206Z,3.47
2018-09-02T23:39:01.650Z,3.70
2018-09-02T23:41:30.114Z,3.97
2018-09-02T23:43:58.574Z,4.17
2018-09-02T23:46:27.082Z,3.87
2018-09-02T23:48:55.541Z,3.57
2018-09-02T23:51:24.076Z,3.27
2018-09-02T23:53:52.609Z,4.10
2018-09-02T23:56:21.067Z,3.50
2018-09-02T23:58:49.559Z,3.77
